CSN332 EDDF-ZGGG
Flight info
| Callsign | CSN332 |
|---|---|
| Flight time | N/A |
| Altitude | 33000 |
| Route | MARUN9S MARUN Y150 TOLGI DCT MAKEL DCT GESKA P605 MOSAT DCT EVONA P862 NETNA DCT TUKMA P989 MEGAS/K0885F330 P989 OBIBA P997 AKUGI T635 OKBOS/K0889F350 T635 SADER T580 ADMUR G117 XV R229 BA R104 ABK A308 TR/K0874F370 P982 DARNO/K0880S1130 Y746 NIXAL B208 SQ/K0880S1160 W45 LYA/K0880S1130 W45 ML/K0880S1160 W45 NUPTI/K0887S1190 W45 VESUX/K0887S1160 W45 IKAVO IKAVO8 |
| Aircraft | B77W/H-SDE1E2E3FGHIJ2J3J4J5M1RWXY/LB1D1 |
Departure
| Time | 2026-05-06 05:59 |
|---|---|
| Airport | Frankfurt Main Airport (EDDF) |
Arrival
| Time | N/A |
|---|---|
| Airport | Guangzhou Baiyun International Airport (ZGGG) |
| Time | Latitude | Longitude | Altitude | Speed | Heading |
|---|---|---|---|---|---|
| 2026-05-06 05:56 | 50.03724 | 8.54210 | 353 ft | 0 kts | 157° |
| 2026-05-06 05:56 | 50.03690 | 8.54232 | 352 ft | 10 kts | 162° |
| 2026-05-06 05:56 | 50.03614 | 8.54156 | 352 ft | 17 kts | 246° |
| 2026-05-06 05:57 | 50.03570 | 8.53956 | 353 ft | 22 kts | 252° |
| 2026-05-06 05:57 | 50.03514 | 8.53701 | 355 ft | 27 kts | 250° |
| 2026-05-06 05:57 | 50.03436 | 8.53394 | 351 ft | 34 kts | 250° |
| 2026-05-06 05:57 | 50.03349 | 8.53023 | 349 ft | 37 kts | 251° |
| 2026-05-06 05:58 | 50.03267 | 8.52687 | 347 ft | 27 kts | 247° |
| 2026-05-06 05:58 | 50.03130 | 8.52594 | 344 ft | 21 kts | 180° |
| 2026-05-06 05:58 | 50.02891 | 8.52597 | 340 ft | 68 kts | 179° |
| 2026-05-06 05:58 | 50.02191 | 8.52605 | 337 ft | 132 kts | 180° |
| 2026-05-06 05:59 | 50.01072 | 8.52615 | 336 ft | 187 kts | 180° |
| 2026-05-06 05:59 | 49.99695 | 8.52622 | 672 ft | 206 kts | 181° |
| 2026-05-06 05:59 | 49.98284 | 8.52313 | 1431 ft | 209 kts | 201° |
| 2026-05-06 05:59 | 49.97014 | 8.51190 | 2017 ft | 218 kts | 222° |
| 2026-05-06 06:00 | 49.95866 | 8.49512 | 2337 ft | 239 kts | 225° |
| 2026-05-06 06:00 | 49.94617 | 8.47615 | 2722 ft | 260 kts | 225° |
| 2026-05-06 06:00 | 49.93322 | 8.45667 | 3510 ft | 263 kts | 225° |
| 2026-05-06 06:00 | 49.91998 | 8.43684 | 4363 ft | 265 kts | 226° |
| 2026-05-06 06:01 | 49.90684 | 8.41721 | 5187 ft | 266 kts | 226° |
| 2026-05-06 06:01 | 49.89351 | 8.39729 | 5983 ft | 268 kts | 226° |
| 2026-05-06 06:01 | 49.88119 | 8.37574 | 6759 ft | 266 kts | 243° |
| 2026-05-06 06:01 | 49.87537 | 8.34923 | 7518 ft | 264 kts | 265° |
| 2026-05-06 06:02 | 49.87726 | 8.32119 | 8268 ft | 265 kts | 289° |
| 2026-05-06 06:02 | 49.88530 | 8.29593 | 9040 ft | 266 kts | 298° |
| 2026-05-06 06:02 | 49.89494 | 8.27161 | 9808 ft | 267 kts | 299° |
| 2026-05-06 06:02 | 49.90528 | 8.24756 | 10479 ft | 272 kts | 304° |
| 2026-05-06 06:03 | 49.91814 | 8.22541 | 11074 ft | 281 kts | 314° |
| 2026-05-06 06:03 | 49.93365 | 8.20652 | 11745 ft | 287 kts | 323° |
| 2026-05-06 06:03 | 49.95124 | 8.19192 | 12408 ft | 294 kts | 333° |
| 2026-05-06 06:03 | 49.97090 | 8.18205 | 13089 ft | 301 kts | 342° |
| 2026-05-06 06:04 | 49.99234 | 8.17743 | 13432 ft | 321 kts | 353° |
| 2026-05-06 06:04 | 50.01564 | 8.17916 | 13531 ft | 350 kts | 4° |
| 2026-05-06 06:04 | 50.04008 | 8.18903 | 13562 ft | 381 kts | 17° |
| 2026-05-06 06:04 | 50.06454 | 8.20824 | 13752 ft | 407 kts | 29° |
| 2026-05-06 06:05 | 50.08770 | 8.23413 | 14434 ft | 413 kts | 32° |
| 2026-05-06 06:05 | 50.11174 | 8.25929 | 15279 ft | 414 kts | 28° |
| 2026-05-06 06:05 | 50.13649 | 8.28249 | 16008 ft | 417 kts | 26° |
| 2026-05-06 06:05 | 50.16167 | 8.30428 | 16681 ft | 422 kts | 24° |
| 2026-05-06 06:06 | 50.18805 | 8.32574 | 17352 ft | 427 kts | 23° |
| 2026-05-06 06:06 | 50.21473 | 8.34651 | 18029 ft | 431 kts | 22° |
| 2026-05-06 06:06 | 50.24202 | 8.36714 | 18730 ft | 434 kts | 21° |
| 2026-05-06 06:06 | 50.26897 | 8.38708 | 19384 ft | 438 kts | 21° |
| 2026-05-06 06:07 | 50.29672 | 8.40733 | 20016 ft | 443 kts | 20° |
| 2026-05-06 06:07 | 50.32546 | 8.42487 | 20629 ft | 444 kts | 15° |
| 2026-05-06 06:07 | 50.35467 | 8.44059 | 21274 ft | 448 kts | 14° |
| 2026-05-06 06:07 | 50.38406 | 8.45639 | 21886 ft | 452 kts | 14° |
| 2026-05-06 06:08 | 50.41399 | 8.47256 | 22469 ft | 456 kts | 14° |
| 2026-05-06 06:08 | 50.44375 | 8.48872 | 23069 ft | 460 kts | 14° |
| 2026-05-06 06:08 | 50.47408 | 8.50524 | 23648 ft | 463 kts | 14° |
| 2026-05-06 06:08 | 50.50484 | 8.52075 | 24142 ft | 467 kts | 12° |
| 2026-05-06 06:09 | 50.53605 | 8.53544 | 24631 ft | 472 kts | 11° |
| 2026-05-06 06:09 | 50.56757 | 8.55030 | 25167 ft | 475 kts | 11° |
| 2026-05-06 06:09 | 50.59930 | 8.56534 | 25663 ft | 479 kts | 11° |
| 2026-05-06 06:09 | 50.63137 | 8.58061 | 26143 ft | 483 kts | 11° |
| 2026-05-06 06:10 | 50.66373 | 8.59608 | 26614 ft | 488 kts | 12° |
| 2026-05-06 06:10 | 50.69630 | 8.61169 | 27043 ft | 492 kts | 12° |
| 2026-05-06 06:10 | 50.72892 | 8.62738 | 27519 ft | 496 kts | 11° |
| 2026-05-06 06:10 | 50.76198 | 8.64392 | 27965 ft | 502 kts | 15° |
| 2026-05-06 06:11 | 50.79377 | 8.66665 | 28353 ft | 512 kts | 25° |
| 2026-05-06 06:11 | 50.82426 | 8.69769 | 28680 ft | 523 kts | 34° |
| 2026-05-06 06:11 | 50.85137 | 8.73534 | 29050 ft | 531 kts | 43° |
| 2026-05-06 06:11 | 50.87561 | 8.78047 | 29506 ft | 536 kts | 51° |
| 2026-05-06 06:12 | 50.89782 | 8.82749 | 30118 ft | 535 kts | 51° |
| 2026-05-06 06:12 | 50.91985 | 8.87450 | 30744 ft | 533 kts | 51° |
| 2026-05-06 06:12 | 50.94186 | 8.92135 | 31297 ft | 532 kts | 51° |
| 2026-05-06 06:12 | 50.96396 | 8.96831 | 31815 ft | 531 kts | 51° |
| 2026-05-06 06:13 | 50.98602 | 9.01514 | 32233 ft | 532 kts | 51° |
| 2026-05-06 06:13 | 51.00821 | 9.06222 | 32712 ft | 531 kts | 50° |
| 2026-05-06 06:13 | 51.03038 | 9.10925 | 33015 ft | 534 kts | 50° |
| 2026-05-06 06:13 | 51.05260 | 9.15634 | 33025 ft | 534 kts | 49° |
| 2026-05-06 06:14 | 51.10487 | 9.23874 | 33024 ft | 521 kts | 31° |
| 2026-05-06 06:14 | 51.16824 | 9.29258 | 33021 ft | 508 kts | 13° |
| 2026-05-06 06:15 | 51.23629 | 9.32142 | 33027 ft | 503 kts | 7° |
| 2026-05-06 06:15 | 51.30451 | 9.34663 | 33028 ft | 503 kts | 6° |
| 2026-05-06 06:16 | 51.37231 | 9.37107 | 33028 ft | 502 kts | 6° |
| 2026-05-06 06:16 | 51.44036 | 9.39528 | 33028 ft | 502 kts | 6° |
| 2026-05-06 06:17 | 51.50877 | 9.41949 | 33028 ft | 501 kts | 6° |
| 2026-05-06 06:17 | 51.57687 | 9.44354 | 33030 ft | 502 kts | 6° |
| 2026-05-06 06:18 | 51.64502 | 9.46763 | 33033 ft | 502 kts | 6° |
| 2026-05-06 06:18 | 51.71322 | 9.49177 | 33036 ft | 502 kts | 6° |
| 2026-05-06 06:19 | 51.78089 | 9.51577 | 33037 ft | 503 kts | 6° |
| 2026-05-06 06:19 | 51.84799 | 9.54887 | 33030 ft | 512 kts | 19° |
| 2026-05-06 06:20 | 51.91214 | 9.59995 | 33027 ft | 514 kts | 21° |
| 2026-05-06 06:20 | 51.97606 | 9.65191 | 33022 ft | 514 kts | 21° |
| 2026-05-06 06:21 | 52.03998 | 9.70402 | 33010 ft | 514 kts | 22° |
| 2026-05-06 06:21 | 52.10419 | 9.75654 | 33010 ft | 516 kts | 22° |
| 2026-05-06 06:22 | 52.16811 | 9.80899 | 33005 ft | 515 kts | 22° |
| 2026-05-06 06:22 | 52.23206 | 9.86162 | 33003 ft | 514 kts | 22° |
| 2026-05-06 06:23 | 52.29573 | 9.91421 | 33003 ft | 514 kts | 22° |
| 2026-05-06 06:23 | 52.35960 | 9.96711 | 33004 ft | 515 kts | 22° |
| 2026-05-06 06:24 | 52.42316 | 10.01995 | 33004 ft | 516 kts | 22° |
| 2026-05-06 06:24 | 52.48724 | 10.07338 | 33003 ft | 515 kts | 22° |
| 2026-05-06 06:25 | 52.55089 | 10.12663 | 33004 ft | 515 kts | 22° |
| 2026-05-06 06:26 | 52.64623 | 10.20672 | 33006 ft | 515 kts | 22° |
| 2026-05-06 06:26 | 52.71008 | 10.26057 | 33008 ft | 516 kts | 22° |
| 2026-05-06 06:27 | 52.77369 | 10.31441 | 33008 ft | 514 kts | 21° |
| 2026-05-06 06:27 | 52.83733 | 10.36844 | 33010 ft | 514 kts | 22° |
| 2026-05-06 06:28 | 52.90079 | 10.42251 | 33011 ft | 515 kts | 22° |
| 2026-05-06 06:28 | 52.96449 | 10.47695 | 33012 ft | 515 kts | 22° |
| 2026-05-06 06:29 | 53.02798 | 10.53141 | 33011 ft | 515 kts | 22° |
| 2026-05-06 06:29 | 53.09197 | 10.58646 | 33012 ft | 516 kts | 22° |
| 2026-05-06 06:30 | 53.15537 | 10.64121 | 33008 ft | 515 kts | 22° |
| 2026-05-06 06:30 | 53.21872 | 10.69608 | 32998 ft | 516 kts | 22° |
| 2026-05-06 06:31 | 53.28225 | 10.75130 | 32998 ft | 516 kts | 22° |
| 2026-05-06 06:31 | 53.34576 | 10.80670 | 32998 ft | 515 kts | 22° |
| 2026-05-06 06:32 | 53.40921 | 10.86221 | 32998 ft | 516 kts | 22° |
| 2026-05-06 06:32 | 53.47271 | 10.91797 | 33000 ft | 516 kts | 22° |
| 2026-05-06 06:33 | 53.53620 | 10.97391 | 33000 ft | 515 kts | 22° |
| 2026-05-06 06:33 | 53.59964 | 11.02999 | 33002 ft | 516 kts | 22° |
| 2026-05-06 06:34 | 53.66287 | 11.08609 | 33003 ft | 516 kts | 22° |
| 2026-05-06 06:34 | 53.72646 | 11.14269 | 33004 ft | 516 kts | 22° |
| 2026-05-06 06:35 | 53.78968 | 11.19916 | 33004 ft | 515 kts | 22° |
| 2026-05-06 06:35 | 53.85276 | 11.25569 | 33004 ft | 516 kts | 22° |
| 2026-05-06 06:36 | 53.91613 | 11.31269 | 33003 ft | 515 kts | 22° |
| 2026-05-06 06:36 | 53.97922 | 11.36962 | 33004 ft | 516 kts | 22° |
| 2026-05-06 06:37 | 54.04278 | 11.42718 | 33004 ft | 516 kts | 22° |
| 2026-05-06 06:37 | 54.10610 | 11.48473 | 33004 ft | 515 kts | 22° |
| 2026-05-06 06:38 | 54.16914 | 11.54221 | 33002 ft | 516 kts | 22° |
| 2026-05-06 06:38 | 54.23198 | 11.59972 | 33002 ft | 515 kts | 22° |
| 2026-05-06 06:39 | 54.29518 | 11.65775 | 33000 ft | 517 kts | 23° |
| 2026-05-06 06:39 | 54.35831 | 11.71593 | 32994 ft | 517 kts | 23° |
| 2026-05-06 06:40 | 54.42170 | 11.77455 | 32995 ft | 516 kts | 23° |
| 2026-05-06 06:40 | 54.48492 | 11.83039 | 33000 ft | 513 kts | 19° |
| 2026-05-06 06:41 | 54.55020 | 11.88082 | 32996 ft | 513 kts | 19° |
| 2026-05-06 06:41 | 54.61293 | 11.94013 | 32993 ft | 522 kts | 33° |
| 2026-05-06 06:42 | 54.66530 | 12.02771 | 33002 ft | 529 kts | 45° |
| 2026-05-06 06:42 | 54.71348 | 12.12288 | 33000 ft | 530 kts | 46° |
| 2026-05-06 06:43 | 54.76195 | 12.21933 | 33001 ft | 530 kts | 46° |
| 2026-05-06 06:43 | 54.81001 | 12.31542 | 33001 ft | 529 kts | 46° |
| 2026-05-06 06:44 | 54.85798 | 12.41172 | 33004 ft | 529 kts | 46° |
| 2026-05-06 06:44 | 54.90606 | 12.50863 | 33008 ft | 530 kts | 46° |
| 2026-05-06 06:45 | 54.95385 | 12.60538 | 33009 ft | 530 kts | 46° |
| 2026-05-06 06:45 | 55.00143 | 12.70208 | 32999 ft | 529 kts | 46° |
| 2026-05-06 06:46 | 55.04757 | 12.80262 | 32989 ft | 533 kts | 55° |
| 2026-05-06 06:46 | 55.08551 | 12.91253 | 32999 ft | 534 kts | 57° |
| 2026-05-06 06:47 | 55.12331 | 13.02414 | 32996 ft | 534 kts | 57° |
| 2026-05-06 06:47 | 55.16083 | 13.13498 | 32997 ft | 534 kts | 57° |
| 2026-05-06 06:48 | 55.19865 | 13.24697 | 32998 ft | 533 kts | 57° |
| 2026-05-06 06:48 | 55.23618 | 13.35845 | 32999 ft | 534 kts | 57° |
| 2026-05-06 06:49 | 55.27351 | 13.46977 | 33000 ft | 533 kts | 57° |
| 2026-05-06 06:49 | 55.31103 | 13.58217 | 33002 ft | 534 kts | 57° |
| 2026-05-06 06:50 | 55.34815 | 13.69380 | 32994 ft | 534 kts | 58° |
| 2026-05-06 06:50 | 55.38556 | 13.80687 | 32996 ft | 534 kts | 58° |
| 2026-05-06 06:51 | 55.42250 | 13.91899 | 32999 ft | 533 kts | 58° |
| 2026-05-06 06:51 | 55.45944 | 14.03163 | 33002 ft | 533 kts | 58° |
| 2026-05-06 06:52 | 55.49649 | 14.14517 | 33003 ft | 534 kts | 58° |
| 2026-05-06 06:52 | 55.53331 | 14.25850 | 33003 ft | 533 kts | 58° |
| 2026-05-06 06:53 | 55.56986 | 14.37155 | 33002 ft | 534 kts | 58° |
| 2026-05-06 06:53 | 55.60663 | 14.48581 | 33003 ft | 534 kts | 58° |
| 2026-05-06 06:54 | 55.64300 | 14.59936 | 33003 ft | 534 kts | 58° |
| 2026-05-06 06:54 | 55.67934 | 14.71337 | 32995 ft | 533 kts | 59° |
| 2026-05-06 06:55 | 55.71375 | 14.82181 | 32996 ft | 535 kts | 59° |
| 2026-05-06 06:55 | 55.74996 | 14.93646 | 32997 ft | 534 kts | 59° |
| 2026-05-06 06:56 | 55.78606 | 15.05133 | 32998 ft | 534 kts | 59° |
| 2026-05-06 06:56 | 55.82209 | 15.16651 | 32999 ft | 534 kts | 59° |
| 2026-05-06 06:57 | 55.85801 | 15.28194 | 33001 ft | 533 kts | 59° |
| 2026-05-06 06:57 | 55.89387 | 15.39768 | 33002 ft | 534 kts | 59° |
| 2026-05-06 06:58 | 55.92947 | 15.51317 | 33004 ft | 534 kts | 59° |
| 2026-05-06 06:58 | 55.96485 | 15.62853 | 33004 ft | 533 kts | 59° |
| 2026-05-06 06:59 | 56.00049 | 15.74528 | 32997 ft | 535 kts | 60° |
| 2026-05-06 06:59 | 56.03582 | 15.86159 | 32999 ft | 535 kts | 60° |
| 2026-05-06 07:00 | 56.07102 | 15.97806 | 33000 ft | 534 kts | 60° |
| 2026-05-06 07:00 | 56.10602 | 16.09441 | 32999 ft | 534 kts | 60° |
| 2026-05-06 07:01 | 56.14093 | 16.21108 | 32998 ft | 534 kts | 60° |
| 2026-05-06 07:01 | 56.17597 | 16.32875 | 32999 ft | 534 kts | 60° |
| 2026-05-06 07:02 | 56.21079 | 16.44625 | 33000 ft | 534 kts | 60° |
| 2026-05-06 07:02 | 56.24547 | 16.56389 | 33001 ft | 534 kts | 60° |
| 2026-05-06 07:03 | 56.27989 | 16.68122 | 32996 ft | 534 kts | 61° |
| 2026-05-06 07:03 | 56.31437 | 16.79937 | 32994 ft | 534 kts | 61° |
| 2026-05-06 07:04 | 56.34866 | 16.91745 | 32995 ft | 534 kts | 61° |
| 2026-05-06 07:04 | 56.38286 | 17.03584 | 32997 ft | 534 kts | 61° |
| 2026-05-06 07:05 | 56.41710 | 17.15495 | 32998 ft | 534 kts | 61° |
| 2026-05-06 07:05 | 56.45103 | 17.27360 | 32999 ft | 534 kts | 61° |
| 2026-05-06 07:06 | 56.48484 | 17.39243 | 33001 ft | 535 kts | 61° |
| 2026-05-06 07:06 | 56.51875 | 17.51224 | 33002 ft | 534 kts | 61° |
| 2026-05-06 07:07 | 56.55235 | 17.63157 | 33003 ft | 535 kts | 61° |
| 2026-05-06 07:07 | 56.58596 | 17.75158 | 32995 ft | 534 kts | 62° |
| 2026-05-06 07:08 | 56.61928 | 17.87112 | 32996 ft | 535 kts | 62° |
| 2026-05-06 07:08 | 56.65260 | 17.99131 | 32997 ft | 534 kts | 62° |
| 2026-05-06 07:09 | 56.68572 | 18.11142 | 32999 ft | 533 kts | 62° |
| 2026-05-06 07:09 | 56.71890 | 18.23238 | 33000 ft | 535 kts | 62° |
| 2026-05-06 07:10 | 56.75181 | 18.35301 | 33002 ft | 535 kts | 62° |
| 2026-05-06 07:10 | 56.78461 | 18.47386 | 33002 ft | 535 kts | 62° |
| 2026-05-06 07:11 | 56.81750 | 18.59569 | 33004 ft | 535 kts | 62° |
| 2026-05-06 07:11 | 56.85019 | 18.71740 | 32997 ft | 535 kts | 63° |
| 2026-05-06 07:12 | 56.88271 | 18.83916 | 32997 ft | 535 kts | 63° |
| 2026-05-06 07:12 | 56.91504 | 18.96086 | 32998 ft | 535 kts | 63° |
| 2026-05-06 07:13 | 56.94723 | 19.08268 | 33000 ft | 535 kts | 63° |
| 2026-05-06 07:13 | 56.97956 | 19.20572 | 33001 ft | 534 kts | 63° |
| 2026-05-06 07:14 | 57.01158 | 19.32822 | 33002 ft | 536 kts | 63° |
| 2026-05-06 07:14 | 57.04348 | 19.45095 | 33004 ft | 535 kts | 63° |
| 2026-05-06 07:15 | 57.07536 | 19.57428 | 33004 ft | 535 kts | 63° |
| 2026-05-06 07:15 | 57.10702 | 19.69743 | 32994 ft | 535 kts | 64° |
| 2026-05-06 07:16 | 57.13854 | 19.82071 | 32994 ft | 536 kts | 64° |
| 2026-05-06 07:16 | 57.16997 | 19.94423 | 32994 ft | 535 kts | 63° |
| 2026-05-06 07:17 | 57.20224 | 20.06666 | 32996 ft | 534 kts | 63° |
| 2026-05-06 07:17 | 57.23483 | 20.19053 | 32997 ft | 535 kts | 63° |
| 2026-05-06 07:18 | 57.26703 | 20.31371 | 32999 ft | 535 kts | 63° |
| 2026-05-06 07:18 | 57.29902 | 20.43687 | 33000 ft | 535 kts | 63° |
| 2026-05-06 07:19 | 57.33097 | 20.56059 | 33002 ft | 535 kts | 63° |
| 2026-05-06 07:19 | 57.36283 | 20.68469 | 32995 ft | 535 kts | 64° |
| 2026-05-06 07:20 | 57.39454 | 20.80893 | 32995 ft | 535 kts | 64° |
| 2026-05-06 07:20 | 57.42607 | 20.93315 | 32996 ft | 536 kts | 64° |
| 2026-05-06 07:21 | 57.45767 | 21.05838 | 32997 ft | 535 kts | 64° |
| 2026-05-06 07:21 | 57.48898 | 21.18310 | 32999 ft | 535 kts | 64° |
| 2026-05-06 07:22 | 57.52005 | 21.30766 | 33000 ft | 536 kts | 63° |
| 2026-05-06 07:22 | 57.55121 | 21.43319 | 33000 ft | 535 kts | 63° |
| 2026-05-06 07:23 | 57.58216 | 21.55865 | 33003 ft | 535 kts | 64° |
| 2026-05-06 07:23 | 57.61288 | 21.68392 | 32998 ft | 535 kts | 64° |
| 2026-05-06 07:24 | 57.64360 | 21.80985 | 32998 ft | 534 kts | 65° |
| 2026-05-06 07:24 | 57.67410 | 21.93565 | 32998 ft | 535 kts | 65° |
| 2026-05-06 07:25 | 57.70460 | 22.06242 | 32999 ft | 535 kts | 65° |
| 2026-05-06 07:25 | 57.73478 | 22.18901 | 32999 ft | 535 kts | 65° |
| 2026-05-06 07:26 | 57.76487 | 22.31598 | 33001 ft | 535 kts | 65° |
| 2026-05-06 07:26 | 57.79484 | 22.44318 | 33002 ft | 535 kts | 64° |
| 2026-05-06 07:27 | 57.82460 | 22.57022 | 33003 ft | 535 kts | 64° |
| 2026-05-06 07:27 | 57.85430 | 22.69774 | 32997 ft | 535 kts | 66° |
| 2026-05-06 07:28 | 57.88376 | 22.82554 | 32996 ft | 535 kts | 66° |
| 2026-05-06 07:28 | 57.92612 | 23.01933 | 32999 ft | 535 kts | 67° |
| 2026-05-06 07:29 | 57.95414 | 23.14850 | 33000 ft | 536 kts | 67° |
| 2026-05-06 07:29 | 57.98198 | 23.27751 | 33001 ft | 535 kts | 67° |
| 2026-05-06 07:30 | 58.00977 | 23.40704 | 33002 ft | 536 kts | 66° |
| 2026-05-06 07:30 | 58.03765 | 23.53778 | 33004 ft | 536 kts | 66° |
| 2026-05-06 07:31 | 58.06519 | 23.66771 | 33003 ft | 535 kts | 68° |
| 2026-05-06 07:31 | 58.09257 | 23.79771 | 32998 ft | 536 kts | 68° |
| 2026-05-06 07:32 | 58.11991 | 23.92833 | 32995 ft | 536 kts | 68° |
| 2026-05-06 07:32 | 58.14698 | 24.05852 | 32996 ft | 536 kts | 68° |
| 2026-05-06 07:33 | 58.17399 | 24.18921 | 32997 ft | 536 kts | 68° |
| 2026-05-06 07:33 | 58.20096 | 24.32060 | 32999 ft | 535 kts | 68° |
| 2026-05-06 07:34 | 58.22772 | 24.45176 | 33000 ft | 536 kts | 68° |
| 2026-05-06 07:34 | 58.25446 | 24.58372 | 33003 ft | 536 kts | 68° |
| 2026-05-06 07:35 | 58.28096 | 24.71538 | 32995 ft | 535 kts | 69° |
| 2026-05-06 07:35 | 58.30729 | 24.84704 | 32998 ft | 536 kts | 69° |
| 2026-05-06 07:36 | 58.33359 | 24.97941 | 33000 ft | 536 kts | 69° |
| 2026-05-06 07:36 | 58.35973 | 25.11192 | 33001 ft | 535 kts | 69° |
| 2026-05-06 07:37 | 58.38575 | 25.24464 | 33004 ft | 536 kts | 69° |
| 2026-05-06 07:37 | 58.41156 | 25.37724 | 33006 ft | 535 kts | 69° |
| 2026-05-06 07:38 | 58.43717 | 25.50968 | 33011 ft | 535 kts | 69° |
| 2026-05-06 07:38 | 58.46281 | 25.64320 | 33012 ft | 537 kts | 69° |
| 2026-05-06 07:39 | 58.48828 | 25.77673 | 33002 ft | 536 kts | 70° |
| 2026-05-06 07:39 | 58.51358 | 25.91026 | 33002 ft | 535 kts | 70° |
| 2026-05-06 07:40 | 58.53875 | 26.04406 | 33003 ft | 536 kts | 70° |
| 2026-05-06 07:40 | 58.56370 | 26.17765 | 33004 ft | 535 kts | 70° |
| 2026-05-06 07:41 | 58.58867 | 26.31226 | 33006 ft | 536 kts | 69° |
| 2026-05-06 07:41 | 58.61330 | 26.44595 | 33009 ft | 535 kts | 70° |
| 2026-05-06 07:42 | 58.63791 | 26.58056 | 33011 ft | 536 kts | 70° |
| 2026-05-06 07:42 | 58.66231 | 26.71490 | 33004 ft | 536 kts | 70° |
| 2026-05-06 07:43 | 58.68675 | 26.85042 | 33004 ft | 536 kts | 71° |
| 2026-05-06 07:43 | 58.71092 | 26.98548 | 33002 ft | 535 kts | 70° |
| 2026-05-06 07:44 | 58.73493 | 27.12063 | 33001 ft | 536 kts | 70° |
| 2026-05-06 07:44 | 58.76332 | 27.25173 | 33006 ft | 535 kts | 61° |
| 2026-05-06 07:45 | 58.79737 | 27.37962 | 33004 ft | 535 kts | 61° |
| 2026-05-06 07:45 | 58.83060 | 27.50716 | 33004 ft | 534 kts | 62° |
| 2026-05-06 07:46 | 58.86342 | 27.63534 | 33005 ft | 534 kts | 62° |
| 2026-05-06 07:46 | 58.89587 | 27.76371 | 32999 ft | 535 kts | 63° |
| 2026-05-06 07:47 | 58.92818 | 27.89278 | 33002 ft | 535 kts | 63° |
| 2026-05-06 07:47 | 58.96035 | 28.02234 | 33005 ft | 535 kts | 63° |
| 2026-05-06 07:48 | 58.99234 | 28.15210 | 33007 ft | 535 kts | 63° |
| 2026-05-06 07:48 | 59.02435 | 28.28283 | 33009 ft | 534 kts | 63° |
| 2026-05-06 07:49 | 59.05598 | 28.41279 | 33010 ft | 535 kts | 63° |
| 2026-05-06 07:49 | 59.08743 | 28.54283 | 33011 ft | 535 kts | 63° |
| 2026-05-06 07:50 | 59.11897 | 28.67402 | 33003 ft | 535 kts | 64° |
| 2026-05-06 07:50 | 59.15025 | 28.80497 | 32998 ft | 534 kts | 64° |
| 2026-05-06 07:51 | 59.18122 | 28.93532 | 33001 ft | 535 kts | 64° |
| 2026-05-06 07:51 | 59.21236 | 29.06718 | 33003 ft | 535 kts | 64° |
| 2026-05-06 07:52 | 59.24320 | 29.19860 | 33005 ft | 536 kts | 64° |
| 2026-05-06 07:52 | 59.27397 | 29.33050 | 33007 ft | 534 kts | 64° |
| 2026-05-06 07:53 | 59.30460 | 29.46261 | 33009 ft | 536 kts | 64° |
| 2026-05-06 07:53 | 59.33529 | 29.59580 | 33012 ft | 535 kts | 64° |
| 2026-05-06 07:54 | 59.36550 | 29.72774 | 33005 ft | 535 kts | 65° |
| 2026-05-06 07:54 | 59.39594 | 29.86150 | 33006 ft | 535 kts | 65° |
| 2026-05-06 07:55 | 59.42590 | 29.99401 | 33007 ft | 535 kts | 65° |
| 2026-05-06 07:55 | 59.45590 | 30.12752 | 33007 ft | 535 kts | 65° |
| 2026-05-06 07:56 | 59.48580 | 30.26143 | 33006 ft | 535 kts | 65° |
| 2026-05-06 07:56 | 59.51540 | 30.39482 | 33007 ft | 535 kts | 65° |
| 2026-05-06 07:57 | 59.54491 | 30.52867 | 33008 ft | 535 kts | 65° |
| 2026-05-06 07:57 | 59.57444 | 30.66346 | 33007 ft | 535 kts | 66° |
| 2026-05-06 07:58 | 59.60373 | 30.79803 | 33000 ft | 536 kts | 66° |
| 2026-05-06 07:58 | 59.63296 | 30.93319 | 33001 ft | 535 kts | 66° |
| 2026-05-06 07:59 | 59.66190 | 31.06790 | 33001 ft | 536 kts | 66° |
| 2026-05-06 07:59 | 59.68315 | 31.18349 | 33003 ft | 536 kts | 75° |